sensor_id;sensor_type;location;lat;lon;timestamp;temperature;humidity
10441;DHT22;5268;49.346;9.522;2022-09-09T03:22:31;15.90;99.90
10441;DHT22;5268;49.346;9.522;2022-09-09T03:27:33;15.90;99.90
10441;DHT22;5268;49.346;9.522;2022-09-09T03:32:35;15.80;99.90
10441;DHT22;5268;49.346;9.522;2022-09-09T03:37:39;15.90;99.90
10441;DHT22;5268;49.346;9.522;2022-09-09T03:42:42;15.80;99.90
10441;DHT22;5268;49.346;9.522;2022-09-09T03:47:44;15.80;99.90
10441;DHT22;5268;49.346;9.522;2022-09-09T03:52:48;15.80;99.90
10441;DHT22;5268;49.346;9.522;2022-09-09T03:57:49;15.70;99.90
10441;DHT22;5268;49.346;9.522;2022-09-09T04:02:51;15.70;99.90
10441;DHT22;5268;49.346;9.522;2022-09-09T04:07:57;15.60;99.90
10441;DHT22;5268;49.346;9.522;2022-09-09T04:12:59;15.40;99.90
10441;DHT22;5268;49.346;9.522;2022-09-09T04:18:01;15.30;99.90
10441;DHT22;5268;49.346;9.522;2022-09-09T04:23:05;15.40;99.90
10441;DHT22;5268;49.346;9.522;2022-09-09T04:28:07;15.40;99.90
10441;DHT22;5268;49.346;9.522;2022-09-09T04:33:10;15.40;99.90
10441;DHT22;5268;49.346;9.522;2022-09-09T04:38:13;15.40;99.90
10441;DHT22;5268;49.346;9.522;2022-09-09T04:43:16;15.40;99.90
10441;DHT22;5268;49.346;9.522;2022-09-09T04:48:20;15.40;99.90
10441;DHT22;5268;49.346;9.522;2022-09-09T04:53:24;15.50;99.90
10441;DHT22;5268;49.346;9.522;2022-09-09T04:58:27;15.50;99.90
10441;DHT22;5268;49.346;9.522;2022-09-09T05:03:29;15.50;99.90
10441;DHT22;5268;49.346;9.522;2022-09-09T05:08:34;15.50;99.90
10441;DHT22;5268;49.346;9.522;2022-09-09T05:13:36;15.60;99.90
10441;DHT22;5268;49.346;9.522;2022-09-09T05:18:38;15.60;99.90
10441;DHT22;5268;49.346;9.522;2022-09-09T05:23:41;15.70;99.90
10441;DHT22;5268;49.346;9.522;2022-09-09T05:28:44;15.70;99.90
10441;DHT22;5268;49.346;9.522;2022-09-09T05:33:47;15.70;99.90
10441;DHT22;5268;49.346;9.522;2022-09-09T05:38:51;15.80;99.90
10441;DHT22;5268;49.346;9.522;2022-09-09T05:43:54;15.80;99.90
10441;DHT22;5268;49.346;9.522;2022-09-09T05:48:56;15.90;99.90
10441;DHT22;5268;49.346;9.522;2022-09-09T05:54:00;15.90;99.90
10441;DHT22;5268;49.346;9.522;2022-09-09T05:59:02;15.90;99.90
10441;DHT22;5268;49.346;9.522;2022-09-09T06:04:04;16.00;99.90
10441;DHT22;5268;49.346;9.522;2022-09-09T06:09:09;16.00;99.90
10441;DHT22;5268;49.346;9.522;2022-09-09T06:14:12;16.00;99.90
10441;DHT22;5268;49.346;9.522;2022-09-09T06:19:14;16.10;99.90
10441;DHT22;5268;49.346;9.522;2022-09-09T06:24:17;16.10;99.90
10441;DHT22;5268;49.346;9.522;2022-09-09T06:29:20;16.20;99.90
10441;DHT22;5268;49.346;9.522;2022-09-09T06:34:22;16.40;99.90
10441;DHT22;5268;49.346;9.522;2022-09-09T06:39:26;16.60;99.90
10441;DHT22;5268;49.346;9.522;2022-09-09T06:44:28;16.70;99.90
10441;DHT22;5268;49.346;9.522;2022-09-09T06:49:33;16.90;99.90
10441;DHT22;5268;49.346;9.522;2022-09-09T06:54:37;17.00;99.90
10441;DHT22;5268;49.346;9.522;2022-09-09T06:59:39;17.20;99.90
10441;DHT22;5268;49.346;9.522;2022-09-09T07:04:40;17.30;99.90
10441;DHT22;5268;49.346;9.522;2022-09-09T07:09:45;17.40;99.90
10441;DHT22;5268;49.346;9.522;2022-09-09T07:14:47;17.60;99.90
10441;DHT22;5268;49.346;9.522;2022-09-09T07:19:49;17.80;99.90
10441;DHT22;5268;49.346;9.522;2022-09-09T07:24:52;18.00;99.90
10441;DHT22;5268;49.346;9.522;2022-09-09T07:29:54;18.20;99.90
10441;DHT22;5268;49.346;9.522;2022-09-09T07:34:56;18.70;99.90
10441;DHT22;5268;49.346;9.522;2022-09-09T07:40:00;19.30;99.90
10441;DHT22;5268;49.346;9.522;2022-09-09T07:45:04;20.00;99.90
10441;DHT22;5268;49.346;9.522;2022-09-09T07:50:07;20.40;99.90
10441;DHT22;5268;49.346;9.522;2022-09-09T07:55:11;20.70;99.90
10441;DHT22;5268;49.346;9.522;2022-09-09T08:00:14;20.80;99.90
10441;DHT22;5268;49.346;9.522;2022-09-09T08:05:16;20.70;99.90
10441;DHT22;5268;49.346;9.522;2022-09-09T08:10:19;20.80;99.90
10441;DHT22;5268;49.346;9.522;2022-09-09T08:15:21;20.80;99.90
10441;DHT22;5268;49.346;9.522;2022-09-09T08:20:23;21.00;99.90
10441;DHT22;5268;49.346;9.522;2022-09-09T08:25:27;21.60;99.90
10441;DHT22;5268;49.346;9.522;2022-09-09T08:30:29;21.90;99.90
10441;DHT22;5268;49.346;9.522;2022-09-09T08:35:31;21.90;99.90
10441;DHT22;5268;49.346;9.522;2022-09-09T08:40:38;21.80;99.90
10441;DHT22;5268;49.346;9.522;2022-09-09T08:45:49;22.10;99.90
10441;DHT22;5268;49.346;9.522;2022-09-09T08:50:52;22.40;99.90
10441;DHT22;5268;49.346;9.522;2022-09-09T08:55:58;22.50;99.90
10441;DHT22;5268;49.346;9.522;2022-09-09T09:01:17;22.50;99.90
10441;DHT22;5268;49.346;9.522;2022-09-09T09:06:37;22.80;99.90
10441;DHT22;5268;49.346;9.522;2022-09-09T09:11:47;23.10;99.90
10441;DHT22;5268;49.346;9.522;2022-09-09T09:16:53;23.40;99.90
10441;DHT22;5268;49.346;9.522;2022-09-09T09:22:00;23.80;99.90
10441;DHT22;5268;49.346;9.522;2022-09-09T09:27:12;24.00;99.90
10441;DHT22;5268;49.346;9.522;2022-09-09T09:32:18;24.20;99.90
10441;DHT22;5268;49.346;9.522;2022-09-09T09:37:26;24.50;99.90
10441;DHT22;5268;49.346;9.522;2022-09-09T09:42:30;24.60;99.90
10441;DHT22;5268;49.346;9.522;2022-09-09T09:47:32;24.20;99.90
10441;DHT22;5268;49.346;9.522;2022-09-09T09:52:35;23.80;99.90
10441;DHT22;5268;49.346;9.522;2022-09-09T09:57:39;23.80;99.90
10441;DHT22;5268;49.346;9.522;2022-09-09T10:02:43;24.00;99.90
10441;DHT22;5268;49.346;9.522;2022-09-09T10:07:46;24.40;99.90
10441;DHT22;5268;49.346;9.522;2022-09-09T10:12:57;24.60;99.50
10441;DHT22;5268;49.346;9.522;2022-09-09T10:18:15;25.00;99.30
10441;DHT22;5268;49.346;9.522;2022-09-09T10:23:29;24.90;99.70
10441;DHT22;5268;49.346;9.522;2022-09-09T10:28:51;24.00;99.70
10441;DHT22;5268;49.346;9.522;2022-09-09T10:34:03;22.90;99.90
10441;DHT22;5268;49.346;9.522;2022-09-09T10:39:18;22.30;99.90
10441;DHT22;5268;49.346;9.522;2022-09-09T10:44:49;21.90;99.90
10441;DHT22;5268;49.346;9.522;2022-09-09T10:50:18;21.60;99.90
10441;DHT22;5268;49.346;9.522;2022-09-09T10:55:25;21.40;99.90
10441;DHT22;5268;49.346;9.522;2022-09-09T11:00:37;21.20;99.90
10441;DHT22;5268;49.346;9.522;2022-09-09T11:05:42;21.30;99.90
10441;DHT22;5268;49.346;9.522;2022-09-09T11:10:48;21.80;99.90
10441;DHT22;5268;49.346;9.522;2022-09-09T11:15:59;22.10;99.90
10441;DHT22;5268;49.346;9.522;2022-09-09T11:21:03;22.40;99.90
10441;DHT22;5268;49.346;9.522;2022-09-09T11:26:13;22.80;99.90
10441;DHT22;5268;49.346;9.522;2022-09-09T11:31:29;23.20;99.90
10441;DHT22;5268;49.346;9.522;2022-09-09T11:42:07;23.60;99.90
10441;DHT22;5268;49.346;9.522;2022-09-09T11:47:22;23.90;99.90
10441;DHT22;5268;49.346;9.522;2022-09-09T11:52:37;24.20;99.90
10441;DHT22;5268;49.346;9.522;2022-09-09T11:57:39;24.20;99.90
10441;DHT22;5268;49.346;9.522;2022-09-09T12:02:49;24.30;99.90
10441;DHT22;5268;49.346;9.522;2022-09-09T12:07:55;24.40;97.60
10441;DHT22;5268;49.346;9.522;2022-09-09T12:13:09;24.20;98.40
10441;DHT22;5268;49.346;9.522;2022-09-09T12:18:23;24.00;98.20
10441;DHT22;5268;49.346;9.522;2022-09-09T12:23:32;23.90;98.80
10441;DHT22;5268;49.346;9.522;2022-09-09T12:28:47;23.90;98.30
10441;DHT22;5268;49.346;9.522;2022-09-09T12:33:53;23.70;97.90
10441;DHT22;5268;49.346;9.522;2022-09-09T12:38:57;23.50;98.00
10441;DHT22;5268;49.346;9.522;2022-09-09T12:44:05;23.40;97.10
10441;DHT22;5268;49.346;9.522;2022-09-09T12:49:29;23.10;96.40
10441;DHT22;5268;49.346;9.522;2022-09-09T12:54:36;22.90;97.50
10441;DHT22;5268;49.346;9.522;2022-09-09T12:59:39;22.70;97.60
10441;DHT22;5268;49.346;9.522;2022-09-09T13:04:43;22.00;97.30
10441;DHT22;5268;49.346;9.522;2022-09-09T13:09:48;22.00;97.60
10441;DHT22;5268;49.346;9.522;2022-09-09T13:14:53;22.20;99.30
10441;DHT22;5268;49.346;9.522;2022-09-09T13:19:57;22.60;98.80
10441;DHT22;5268;49.346;9.522;2022-09-09T13:25:05;22.80;98.40
10441;DHT22;5268;49.346;9.522;2022-09-09T13:30:21;22.60;94.80
10441;DHT22;5268;49.346;9.522;2022-09-09T13:35:25;22.60;96.80
10441;DHT22;5268;49.346;9.522;2022-09-09T13:40:27;22.40;95.40
10441;DHT22;5268;49.346;9.522;2022-09-09T13:45:31;22.60;95.50
10441;DHT22;5268;49.346;9.522;2022-09-09T13:50:36;22.70;94.70
10441;DHT22;5268;49.346;9.522;2022-09-09T13:55:39;22.80;96.60
10441;DHT22;5268;49.346;9.522;2022-09-09T14:00:42;22.60;95.10
10441;DHT22;5268;49.346;9.522;2022-09-09T14:05:46;22.90;96.70
10441;DHT22;5268;49.346;9.522;2022-09-09T14:10:49;23.00;96.10
10441;DHT22;5268;49.346;9.522;2022-09-09T14:15:51;22.90;95.40
10441;DHT22;5268;49.346;9.522;2022-09-09T14:20:55;23.10;94.80
10441;DHT22;5268;49.346;9.522;2022-09-09T14:25:59;23.10;95.60
10441;DHT22;5268;49.346;9.522;2022-09-09T14:31:01;23.10;96.20
10441;DHT22;5268;49.346;9.522;2022-09-09T14:36:06;23.10;95.20
10441;DHT22;5268;49.346;9.522;2022-09-09T14:41:09;23.00;95.10
10441;DHT22;5268;49.346;9.522;2022-09-09T14:46:13;22.70;95.60
10441;DHT22;5268;49.346;9.522;2022-09-09T14:51:19;22.60;96.20
10441;DHT22;5268;49.346;9.522;2022-09-09T14:56:24;22.50;96.40
10441;DHT22;5268;49.346;9.522;2022-09-09T15:01:27;22.50;96.50
10441;DHT22;5268;49.346;9.522;2022-09-09T15:06:33;22.30;96.80
10441;DHT22;5268;49.346;9.522;2022-09-09T15:11:36;22.30;96.90
10441;DHT22;5268;49.346;9.522;2022-09-09T15:16:39;22.30;96.50
10441;DHT22;5268;49.346;9.522;2022-09-09T15:21:43;22.30;96.70
10441;DHT22;5268;49.346;9.522;2022-09-09T15:26:45;22.10;96.60
10441;DHT22;5268;49.346;9.522;2022-09-09T15:31:47;21.80;96.60
10441;DHT22;5268;49.346;9.522;2022-09-09T15:36:50;21.60;96.70
10441;DHT22;5268;49.346;9.522;2022-09-09T15:41:52;21.50;96.90
10441;DHT22;5268;49.346;9.522;2022-09-09T15:46:54;21.40;96.90
10441;DHT22;5268;49.346;9.522;2022-09-09T15:51:59;21.30;97.00
10441;DHT22;5268;49.346;9.522;2022-09-09T15:57:05;21.30;97.10
10441;DHT22;5268;49.346;9.522;2022-09-09T16:02:09;21.30;97.30
10441;DHT22;5268;49.346;9.522;2022-09-09T16:07:12;21.30;97.30
10441;DHT22;5268;49.346;9.522;2022-09-09T16:12:15;21.30;97.40
10441;DHT22;5268;49.346;9.522;2022-09-09T16:17:17;21.30;97.40
10441;DHT22;5268;49.346;9.522;2022-09-09T16:22:22;21.30;97.40
10441;DHT22;5268;49.346;9.522;2022-09-09T16:27:25;21.30;97.50
10441;DHT22;5268;49.346;9.522;2022-09-09T16:32:27;21.20;97.50
10441;DHT22;5268;49.346;9.522;2022-09-09T16:37:30;21.10;97.60
10441;DHT22;5268;49.346;9.522;2022-09-09T16:42:34;21.10;97.90
10441;DHT22;5268;49.346;9.522;2022-09-09T16:47:36;21.10;98.30
10441;DHT22;5268;49.346;9.522;2022-09-09T16:52:40;21.00;98.40
10441;DHT22;5268;49.346;9.522;2022-09-09T16:57:41;21.00;98.50
10441;DHT22;5268;49.346;9.522;2022-09-09T17:02:43;20.90;98.60
10441;DHT22;5268;49.346;9.522;2022-09-09T17:07:47;20.90;98.50
10441;DHT22;5268;49.346;9.522;2022-09-09T17:12:49;20.80;98.40
10441;DHT22;5268;49.346;9.522;2022-09-09T17:17:51;20.70;98.50
10441;DHT22;5268;49.346;9.522;2022-09-09T17:22:56;20.60;98.50
10441;DHT22;5268;49.346;9.522;2022-09-09T17:27:58;20.40;98.70
10441;DHT22;5268;49.346;9.522;2022-09-09T17:33:00;20.30;98.80
10441;DHT22;5268;49.346;9.522;2022-09-09T17:38:03;20.30;99.00
10441;DHT22;5268;49.346;9.522;2022-09-09T17:43:06;20.20;99.10
10441;DHT22;5268;49.346;9.522;2022-09-09T17:48:09;20.10;99.90
10441;DHT22;5268;49.346;9.522;2022-09-09T17:53:12;20.00;99.40
10441;DHT22;5268;49.346;9.522;2022-09-09T17:58:14;19.80;99.30
10441;DHT22;5268;49.346;9.522;2022-09-09T18:03:16;19.70;99.40
10441;DHT22;5268;49.346;9.522;2022-09-09T18:08:20;19.60;99.10
10441;DHT22;5268;49.346;9.522;2022-09-09T18:13:22;19.60;99.40
10441;DHT22;5268;49.346;9.522;2022-09-09T18:18:25;19.40;99.30
10441;DHT22;5268;49.346;9.522;2022-09-09T18:23:29;19.30;99.60
10441;DHT22;5268;49.346;9.522;2022-09-09T18:28:32;19.20;99.80
10441;DHT22;5268;49.346;9.522;2022-09-09T18:33:35;19.10;99.90
10441;DHT22;5268;49.346;9.522;2022-09-09T18:38:39;19.00;99.80
10441;DHT22;5268;49.346;9.522;2022-09-09T18:43:41;18.90;99.90
10441;DHT22;5268;49.346;9.522;2022-09-09T18:48:44;18.90;99.90
10441;DHT22;5268;49.346;9.522;2022-09-09T18:53:51;18.80;99.90
10441;DHT22;5268;49.346;9.522;2022-09-09T18:58:55;18.70;99.90
10441;DHT22;5268;49.346;9.522;2022-09-09T19:03:57;18.60;99.90
10441;DHT22;5268;49.346;9.522;2022-09-09T19:09:03;18.50;99.90
10441;DHT22;5268;49.346;9.522;2022-09-09T19:14:06;18.40;99.90
10441;DHT22;5268;49.346;9.522;2022-09-09T19:19:12;18.30;99.90
10441;DHT22;5268;49.346;9.522;2022-09-09T19:24:17;18.30;99.90
10441;DHT22;5268;49.346;9.522;2022-09-09T19:29:22;18.20;99.90
10441;DHT22;5268;49.346;9.522;2022-09-09T19:34:24;18.10;99.90
10441;DHT22;5268;49.346;9.522;2022-09-09T19:39:28;18.10;99.90
10441;DHT22;5268;49.346;9.522;2022-09-09T19:44:31;18.00;99.90
10441;DHT22;5268;49.346;9.522;2022-09-09T19:49:33;18.00;99.90
10441;DHT22;5268;49.346;9.522;2022-09-09T19:54:38;18.00;99.90
10441;DHT22;5268;49.346;9.522;2022-09-09T19:59:39;18.00;99.90
10441;DHT22;5268;49.346;9.522;2022-09-09T20:04:41;17.90;99.90
10441;DHT22;5268;49.346;9.522;2022-09-09T20:09:45;17.90;99.90
10441;DHT22;5268;49.346;9.522;2022-09-09T20:14:48;17.90;99.90
10441;DHT22;5268;49.346;9.522;2022-09-09T20:19:50;17.80;99.90
10441;DHT22;5268;49.346;9.522;2022-09-09T20:24:53;17.80;99.90
10441;DHT22;5268;49.346;9.522;2022-09-09T20:29:58;17.80;99.90
10441;DHT22;5268;49.346;9.522;2022-09-09T20:35:00;17.80;99.90
10441;DHT22;5268;49.346;9.522;2022-09-09T20:40:04;17.80;99.90
10441;DHT22;5268;49.346;9.522;2022-09-09T20:45:06;17.70;99.90
10441;DHT22;5268;49.346;9.522;2022-09-09T20:50:11;17.70;99.90
10441;DHT22;5268;49.346;9.522;2022-09-09T20:55:15;17.60;99.90
10441;DHT22;5268;49.346;9.522;2022-09-09T21:00:18;17.60;99.90
10441;DHT22;5268;49.346;9.522;2022-09-09T21:05:19;17.50;99.90
10441;DHT22;5268;49.346;9.522;2022-09-09T21:10:23;17.40;99.90
10441;DHT22;5268;49.346;9.522;2022-09-09T21:15:25;17.40;99.90
10441;DHT22;5268;49.346;9.522;2022-09-09T21:20:27;17.40;99.90
10441;DHT22;5268;49.346;9.522;2022-09-09T21:25:32;17.30;99.90
